sensor_id;sensor_type;location;lat;lon;timestamp;pressure;altitude;pressure_sealevel;temperature;humidity
61757;BME280;57225;61.460;24.060;2023-11-18T00:00:00;100809.03;;;-2.81;100.00
61757;BME280;57225;61.460;24.060;2023-11-18T00:02:44;100811.97;;;-2.78;100.00
61757;BME280;57225;61.460;24.060;2023-11-18T00:05:30;100810.03;;;-2.77;100.00
61757;BME280;57225;61.460;24.060;2023-11-18T00:08:14;100800.25;;;-2.78;100.00
61757;BME280;57225;61.460;24.060;2023-11-18T00:10:59;100816.53;;;-2.73;100.00
61757;BME280;57225;61.460;24.060;2023-11-18T00:13:43;100808.34;;;-2.73;100.00
61757;BME280;57225;61.460;24.060;2023-11-18T00:16:28;100809.38;;;-2.69;100.00
61757;BME280;57225;61.460;24.060;2023-11-18T00:19:14;100808.34;;;-2.73;100.00
61757;BME280;57225;61.460;24.060;2023-11-18T00:21:58;100815.34;;;-2.67;100.00
61757;BME280;57225;61.460;24.060;2023-11-18T00:24:43;100801.63;;;-2.62;100.00
61757;BME280;57225;61.460;24.060;2023-11-18T00:27:27;100817.47;;;-2.64;100.00
61757;BME280;57225;61.460;24.060;2023-11-18T00:30:12;100806.94;;;-2.71;100.00
61757;BME280;57225;61.460;24.060;2023-11-18T00:32:56;100797.66;;;-2.70;100.00
61757;BME280;57225;61.460;24.060;2023-11-18T00:35:41;100807.66;;;-2.65;100.00
61757;BME280;57225;61.460;24.060;2023-11-18T00:38:26;100801.72;;;-2.67;100.00
61757;BME280;57225;61.460;24.060;2023-11-18T00:41:11;100816.88;;;-2.61;100.00
61757;BME280;57225;61.460;24.060;2023-11-18T00:43:56;100782.28;;;-2.79;100.00
61757;BME280;57225;61.460;24.060;2023-11-18T00:46:41;100805.69;;;-2.60;100.00
61757;BME280;57225;61.460;24.060;2023-11-18T00:49:25;100810.38;;;-2.65;100.00
61757;BME280;57225;61.460;24.060;2023-11-18T00:52:10;100804.63;;;-2.64;100.00
61757;BME280;57225;61.460;24.060;2023-11-18T00:54:54;100800.72;;;-2.58;100.00
61757;BME280;57225;61.460;24.060;2023-11-18T00:57:38;100809.22;;;-2.59;100.00
61757;BME280;57225;61.460;24.060;2023-11-18T01:00:23;100802.06;;;-2.55;100.00
61757;BME280;57225;61.460;24.060;2023-11-18T01:03:10;100803.78;;;-2.59;100.00
61757;BME280;57225;61.460;24.060;2023-11-18T01:05:54;100802.72;;;-2.63;100.00
61757;BME280;57225;61.460;24.060;2023-11-18T01:08:39;100797.88;;;-2.66;100.00
61757;BME280;57225;61.460;24.060;2023-11-18T01:11:24;100797.34;;;-2.68;100.00
61757;BME280;57225;61.460;24.060;2023-11-18T01:14:08;100796.16;;;-2.62;100.00
61757;BME280;57225;61.460;24.060;2023-11-18T01:16:53;100801.72;;;-2.67;100.00
61757;BME280;57225;61.460;24.060;2023-11-18T01:19:37;100805.44;;;-2.63;100.00
61757;BME280;57225;61.460;24.060;2023-11-18T01:22:22;100803.69;;;-2.54;100.00
61757;BME280;57225;61.460;24.060;2023-11-18T01:25:07;100801.75;;;-2.54;100.00
61757;BME280;57225;61.460;24.060;2023-11-18T01:27:52;100770.97;;;-2.73;100.00
61757;BME280;57225;61.460;24.060;2023-11-18T01:30:37;100795.31;;;-2.44;100.00
61757;BME280;57225;61.460;24.060;2023-11-18T01:33:21;100803.50;;;-2.44;100.00
61757;BME280;57225;61.460;24.060;2023-11-18T01:36:09;100795.53;;;-2.40;100.00
61757;BME280;57225;61.460;24.060;2023-11-18T01:38:53;100789.25;;;-2.41;100.00
61757;BME280;57225;61.460;24.060;2023-11-18T01:41:39;100794.72;;;-2.41;100.00
61757;BME280;57225;61.460;24.060;2023-11-18T01:44:39;100798.31;;;-2.46;100.00
61757;BME280;57225;61.460;24.060;2023-11-18T01:47:24;100804.59;;;-2.45;100.00
61757;BME280;57225;61.460;24.060;2023-11-18T01:50:12;100795.59;;;-2.46;100.00
61757;BME280;57225;61.460;24.060;2023-11-18T01:52:57;100792.97;;;-2.51;100.00
61757;BME280;57225;61.460;24.060;2023-11-18T01:55:42;100790.13;;;-2.46;100.00
61757;BME280;57225;61.460;24.060;2023-11-18T01:58:26;100787.41;;;-2.46;100.00
61757;BME280;57225;61.460;24.060;2023-11-18T02:01:11;100792.38;;;-2.48;100.00
61757;BME280;57225;61.460;24.060;2023-11-18T02:03:55;100780.66;;;-2.48;100.00
61757;BME280;57225;61.460;24.060;2023-11-18T02:06:40;100782.47;;;-2.44;100.00
61757;BME280;57225;61.460;24.060;2023-11-18T02:09:24;100786.00;;;-2.43;100.00
61757;BME280;57225;61.460;24.060;2023-11-18T02:15:11;100783.78;;;-2.41;100.00
61757;BME280;57225;61.460;24.060;2023-11-18T02:17:57;100789.84;;;-2.44;100.00
61757;BME280;57225;61.460;24.060;2023-11-18T02:20:43;100786.81;;;-2.42;100.00
61757;BME280;57225;61.460;24.060;2023-11-18T02:23:28;100787.00;;;-2.39;100.00
61757;BME280;57225;61.460;24.060;2023-11-18T02:26:21;100786.72;;;-2.37;100.00
61757;BME280;57225;61.460;24.060;2023-11-18T02:29:05;100786.00;;;-2.43;100.00
61757;BME280;57225;61.460;24.060;2023-11-18T02:31:52;100779.16;;;-2.40;100.00
61757;BME280;57225;61.460;24.060;2023-11-18T02:34:40;100786.53;;;-2.41;100.00
61757;BME280;57225;61.460;24.060;2023-11-18T02:37:30;100781.06;;;-2.41;100.00
61757;BME280;57225;61.460;24.060;2023-11-18T02:40:19;100787.25;;;-2.35;100.00
61757;BME280;57225;61.460;24.060;2023-11-18T02:43:04;100776.09;;;-2.39;100.00
61757;BME280;57225;61.460;24.060;2023-11-18T02:45:50;100775.00;;;-2.38;100.00
61757;BME280;57225;61.460;24.060;2023-11-18T02:48:35;100768.00;;;-2.44;100.00
61757;BME280;57225;61.460;24.060;2023-11-18T02:51:22;100772.78;;;-2.36;100.00
61757;BME280;57225;61.460;24.060;2023-11-18T02:54:07;100775.50;;;-2.36;100.00
61757;BME280;57225;61.460;24.060;2023-11-18T02:56:54;100778.44;;;-2.32;100.00
61757;BME280;57225;61.460;24.060;2023-11-18T02:59:38;100780.28;;;-2.28;100.00
61757;BME280;57225;61.460;24.060;2023-11-18T03:02:23;100779.88;;;-2.35;100.00
61757;BME280;57225;61.460;24.060;2023-11-18T03:05:08;100766.41;;;-2.31;100.00
61757;BME280;57225;61.460;24.060;2023-11-18T03:07:55;100766.41;;;-2.31;100.00
61757;BME280;57225;61.460;24.060;2023-11-18T03:10:42;100751.44;;;-2.34;100.00
61757;BME280;57225;61.460;24.060;2023-11-18T03:13:28;100754.69;;;-2.32;100.00
61757;BME280;57225;61.460;24.060;2023-11-18T03:16:12;100762.78;;;-2.27;100.00
61757;BME280;57225;61.460;24.060;2023-11-18T03:18:57;100762.44;;;-2.39;100.00
61757;BME280;57225;61.460;24.060;2023-11-18T03:21:43;100763.78;;;-2.36;100.00
61757;BME280;57225;61.460;24.060;2023-11-18T03:24:27;100752.88;;;-2.36;100.00
61757;BME280;57225;61.460;24.060;2023-11-18T03:27:12;100741.72;;;-2.40;100.00
61757;BME280;57225;61.460;24.060;2023-11-18T03:29:57;100745.97;;;-2.34;100.00
61757;BME280;57225;61.460;24.060;2023-11-18T03:32:41;100747.13;;;-2.35;100.00
61757;BME280;57225;61.460;24.060;2023-11-18T03:35:26;100748.63;;;-2.29;100.00
61757;BME280;57225;61.460;24.060;2023-11-18T03:38:10;100743.66;;;-2.27;100.00
61757;BME280;57225;61.460;24.060;2023-11-18T03:40:55;100736.09;;;-2.30;100.00
61757;BME280;57225;61.460;24.060;2023-11-18T03:43:41;100737.19;;;-2.31;100.00
61757;BME280;57225;61.460;24.060;2023-11-18T03:46:25;100743.16;;;-2.29;100.00
61757;BME280;57225;61.460;24.060;2023-11-18T03:49:09;100739.34;;;-2.28;100.00
61757;BME280;57225;61.460;24.060;2023-11-18T03:51:54;100741.75;;;-2.26;100.00
61757;BME280;57225;61.460;24.060;2023-11-18T03:54:39;100741.97;;;-2.23;100.00
61757;BME280;57225;61.460;24.060;2023-11-18T03:57:23;100738.00;;;-2.30;100.00
61757;BME280;57225;61.460;24.060;2023-11-18T04:00:08;100736.09;;;-2.30;100.00
61757;BME280;57225;61.460;24.060;2023-11-18T04:02:56;100731.44;;;-2.29;100.00
61757;BME280;57225;61.460;24.060;2023-11-18T04:05:44;100727.38;;;-2.32;100.00
61757;BME280;57225;61.460;24.060;2023-11-18T04:08:28;100740.75;;;-2.30;100.00
61757;BME280;57225;61.460;24.060;2023-11-18T04:11:15;100697.56;;;-2.56;100.00
61757;BME280;57225;61.460;24.060;2023-11-18T04:14:00;100741.31;;;-2.33;100.00
61757;BME280;57225;61.460;24.060;2023-11-18T04:16:45;100736.69;;;-2.33;100.00
61757;BME280;57225;61.460;24.060;2023-11-18T04:19:30;100738.81;;;-2.30;100.00
61757;BME280;57225;61.460;24.060;2023-11-18T04:22:15;100734.56;;;-2.36;100.00
61757;BME280;57225;61.460;24.060;2023-11-18T04:24:59;100732.75;;;-2.40;100.00
61757;BME280;57225;61.460;24.060;2023-11-18T04:27:44;100733.53;;;-2.40;100.00
61757;BME280;57225;61.460;24.060;2023-11-18T04:30:28;100729.22;;;-2.41;100.00
61757;BME280;57225;61.460;24.060;2023-11-18T04:33:12;100722.53;;;-2.35;100.00
61757;BME280;57225;61.460;24.060;2023-11-18T04:35:58;100735.06;;;-2.34;100.00
61757;BME280;57225;61.460;24.060;2023-11-18T04:38:43;100728.81;;;-2.34;100.00
61757;BME280;57225;61.460;24.060;2023-11-18T04:41:30;100727.09;;;-2.30;100.00
61757;BME280;57225;61.460;24.060;2023-11-18T04:44:31;100733.88;;;-2.28;100.00
61757;BME280;57225;61.460;24.060;2023-11-18T04:47:15;100732.25;;;-2.29;100.00
61757;BME280;57225;61.460;24.060;2023-11-18T04:50:02;100730.00;;;-2.27;100.00
61757;BME280;57225;61.460;24.060;2023-11-18T04:52:48;100726.78;;;-2.29;100.00
61757;BME280;57225;61.460;24.060;2023-11-18T04:55:32;100724.56;;;-2.27;100.00
61757;BME280;57225;61.460;24.060;2023-11-18T04:58:17;100725.16;;;-2.30;100.00
61757;BME280;57225;61.460;24.060;2023-11-18T05:01:02;100681.38;;;-2.52;100.00
61757;BME280;57225;61.460;24.060;2023-11-18T05:03:47;100725.97;;;-2.29;100.00
61757;BME280;57225;61.460;24.060;2023-11-18T05:06:31;100718.28;;;-2.27;100.00
61757;BME280;57225;61.460;24.060;2023-11-18T05:09:15;100718.50;;;-2.24;100.00
61757;BME280;57225;61.460;24.060;2023-11-18T05:12:02;100720.41;;;-2.24;100.00
61757;BME280;57225;61.460;24.060;2023-11-18T05:14:46;100721.00;;;-2.27;100.00
61757;BME280;57225;61.460;24.060;2023-11-18T05:17:36;100721.53;;;-2.25;100.00
61757;BME280;57225;61.460;24.060;2023-11-18T05:20:21;100717.38;;;-2.23;100.00
61757;BME280;57225;61.460;24.060;2023-11-18T05:23:06;100719.50;;;-2.20;100.00
61757;BME280;57225;61.460;24.060;2023-11-18T05:25:52;100721.75;;;-2.22;100.00
61757;BME280;57225;61.460;24.060;2023-11-18T05:28:36;100722.03;;;-2.23;100.00
61757;BME280;57225;61.460;24.060;2023-11-18T05:31:20;100714.78;;;-2.28;100.00
61757;BME280;57225;61.460;24.060;2023-11-18T05:34:05;100730.22;;;-2.23;100.00
61757;BME280;57225;61.460;24.060;2023-11-18T05:36:49;100727.78;;;-2.25;100.00
61757;BME280;57225;61.460;24.060;2023-11-18T05:39:38;100731.63;;;-2.26;100.00
61757;BME280;57225;61.460;24.060;2023-11-18T05:42:28;100732.16;;;-2.24;100.00
61757;BME280;57225;61.460;24.060;2023-11-18T05:45:12;100735.47;;;-2.27;100.00
61757;BME280;57225;61.460;24.060;2023-11-18T05:48:02;100733.25;;;-2.25;100.00
61757;BME280;57225;61.460;24.060;2023-11-18T05:50:48;100728.91;;;-2.26;100.00
61757;BME280;57225;61.460;24.060;2023-11-18T05:53:32;100726.16;;;-2.26;100.00
61757;BME280;57225;61.460;24.060;2023-11-18T05:56:17;100726.16;;;-2.26;100.00
61757;BME280;57225;61.460;24.060;2023-11-18T05:59:02;100723.53;;;-2.31;100.00
61757;BME280;57225;61.460;24.060;2023-11-18T06:01:49;100725.75;;;-2.33;100.00
61757;BME280;57225;61.460;24.060;2023-11-18T06:04:34;100726.28;;;-2.31;100.00
61757;BME280;57225;61.460;24.060;2023-11-18T06:07:19;100730.63;;;-2.30;100.00
61757;BME280;57225;61.460;24.060;2023-11-18T06:10:03;100725.69;;;-2.28;100.00
61757;BME280;57225;61.460;24.060;2023-11-18T06:12:49;100731.94;;;-2.27;100.00
61757;BME280;57225;61.460;24.060;2023-11-18T06:15:36;100731.22;;;-2.33;100.00
61757;BME280;57225;61.460;24.060;2023-11-18T06:18:22;100736.69;;;-2.33;100.00
61757;BME280;57225;61.460;24.060;2023-11-18T06:21:07;100737.31;;;-2.36;100.00
61757;BME280;57225;61.460;24.060;2023-11-18T06:23:54;100740.03;;;-2.36;100.00
61757;BME280;57225;61.460;24.060;2023-11-18T06:26:39;100742.66;;;-2.31;100.00
61757;BME280;57225;61.460;24.060;2023-11-18T06:29:23;100742.13;;;-2.33;100.00
61757;BME280;57225;61.460;24.060;2023-11-18T06:32:08;100743.75;;;-2.32;100.00
61757;BME280;57225;61.460;24.060;2023-11-18T06:34:52;100743.16;;;-2.29;100.00
61757;BME280;57225;61.460;24.060;2023-11-18T06:37:37;100739.81;;;-2.26;100.00
61757;BME280;57225;61.460;24.060;2023-11-18T06:40:22;100751.25;;;-2.24;100.00
61757;BME280;57225;61.460;24.060;2023-11-18T06:43:08;100750.34;;;-2.19;100.00
61757;BME280;57225;61.460;24.060;2023-11-18T06:45:55;100747.09;;;-2.21;100.00
61757;BME280;57225;61.460;24.060;2023-11-18T06:48:39;100750.16;;;-2.23;100.00
61757;BME280;57225;61.460;24.060;2023-11-18T06:51:26;100746.81;;;-2.20;100.00
61757;BME280;57225;61.460;24.060;2023-11-18T06:54:11;100741.34;;;-2.20;100.00
61757;BME280;57225;61.460;24.060;2023-11-18T06:56:57;100751.66;;;-2.17;100.00
61757;BME280;57225;61.460;24.060;2023-11-18T06:59:42;100755.41;;;-2.13;100.00
61757;BME280;57225;61.460;24.060;2023-11-18T07:02:27;100765.81;;;-2.15;100.00
61757;BME280;57225;61.460;24.060;2023-11-18T07:05:11;100766.63;;;-2.14;100.00
61757;BME280;57225;61.460;24.060;2023-11-18T07:07:56;100764.22;;;-2.16;100.00
61757;BME280;57225;61.460;24.060;2023-11-18T07:10:41;100758.75;;;-2.16;100.00
61757;BME280;57225;61.460;24.060;2023-11-18T07:13:25;100759.25;;;-2.14;100.00
61757;BME280;57225;61.460;24.060;2023-11-18T07:16:10;100760.97;;;-2.18;100.00
61757;BME280;57225;61.460;24.060;2023-11-18T07:18:55;100754.88;;;-2.15;100.00
61757;BME280;57225;61.460;24.060;2023-11-18T07:21:40;100757.22;;;-2.08;100.00
61757;BME280;57225;61.460;24.060;2023-11-18T07:24:25;100752.09;;;-2.10;100.00
61757;BME280;57225;61.460;24.060;2023-11-18T07:27:09;100757.53;;;-2.10;100.00
61757;BME280;57225;61.460;24.060;2023-11-18T07:29:55;100759.88;;;-2.03;100.00
61757;BME280;57225;61.460;24.060;2023-11-18T07:32:41;100765.81;;;-2.01;100.00
61757;BME280;57225;61.460;24.060;2023-11-18T07:35:26;100768.88;;;-2.03;100.00
61757;BME280;57225;61.460;24.060;2023-11-18T07:38:10;100778.06;;;-1.98;100.00
61757;BME280;57225;61.460;24.060;2023-11-18T07:40:55;100773.72;;;-1.99;100.00
61757;BME280;57225;61.460;24.060;2023-11-18T07:43:40;100775.34;;;-1.98;100.00
61757;BME280;57225;61.460;24.060;2023-11-18T07:46:25;100775.34;;;-1.98;100.00
61757;BME280;57225;61.460;24.060;2023-11-18T07:49:09;100773.72;;;-1.99;100.00
61757;BME280;57225;61.460;24.060;2023-11-18T07:51:54;100778.88;;;-1.98;100.00
61757;BME280;57225;61.460;24.060;2023-11-18T07:54:38;100769.25;;;-1.95;100.00
61757;BME280;57225;61.460;24.060;2023-11-18T07:57:23;100780.19;;;-1.95;100.00
61757;BME280;57225;61.460;24.060;2023-11-18T08:00:08;100775.53;;;-1.95;100.00
61757;BME280;57225;61.460;24.060;2023-11-18T08:02:55;100772.72;;;-1.90;100.00
61757;BME280;57225;61.460;24.060;2023-11-18T08:05:41;100776.84;;;-1.92;100.00
61757;BME280;57225;61.460;24.060;2023-11-18T08:08:27;100784.13;;;-1.88;100.00
61757;BME280;57225;61.460;24.060;2023-11-18T08:11:12;100775.13;;;-1.88;100.00
61757;BME280;57225;61.460;24.060;2023-11-18T08:13:57;100781.09;;;-1.86;100.00
61757;BME280;57225;61.460;24.060;2023-11-18T08:16:42;100771.50;;;-1.84;100.00
61757;BME280;57225;61.460;24.060;2023-11-18T08:19:27;100769.78;;;-1.80;100.00
61757;BME280;57225;61.460;24.060;2023-11-18T08:22:12;100782.03;;;-1.77;100.00
61757;BME280;57225;61.460;24.060;2023-11-18T08:24:57;100781.41;;;-1.74;100.00
61757;BME280;57225;61.460;24.060;2023-11-18T08:27:46;100789.00;;;-1.71;100.00
61757;BME280;57225;61.460;24.060;2023-11-18T08:30:30;100786.06;;;-1.75;100.00
61757;BME280;57225;61.460;24.060;2023-11-18T08:33:15;100788.50;;;-1.73;100.00
61757;BME280;57225;61.460;24.060;2023-11-18T08:35:59;100785.88;;;-1.78;100.00
61757;BME280;57225;61.460;24.060;2023-11-18T08:38:45;100782.50;;;-1.75;100.00
61757;BME280;57225;61.460;24.060;2023-11-18T08:41:31;100771.09;;;-1.91;100.00
61757;BME280;57225;61.460;24.060;2023-11-18T08:44:25;100785.88;;;-1.78;100.00
61757;BME280;57225;61.460;24.060;2023-11-18T08:47:09;100796.16;;;-1.75;100.00
61757;BME280;57225;61.460;24.060;2023-11-18T08:49:56;100786.47;;;-1.68;100.00
61757;BME280;57225;61.460;24.060;2023-11-18T08:52:40;100787.38;;;-1.72;100.00
61757;BME280;57225;61.460;24.060;2023-11-18T08:55:29;100790.69;;;-1.62;100.00
61757;BME280;57225;61.460;24.060;2023-11-18T08:58:34;100795.75;;;-1.55;100.00
61757;BME280;57225;61.460;24.060;2023-11-18T09:01:20;100799.47;;;-1.51;100.00
61757;BME280;57225;61.460;24.060;2023-11-18T09:04:07;100803.34;;;-1.52;100.00
61757;BME280;57225;61.460;24.060;2023-11-18T09:06:51;100795.75;;;-1.55;100.00
61757;BME280;57225;61.460;24.060;2023-11-18T09:09:44;100791.00;;;-1.63;100.00
61757;BME280;57225;61.460;24.060;2023-11-18T09:12:29;100794.75;;;-1.59;100.00
61757;BME280;57225;61.460;24.060;2023-11-18T09:15:13;100772.91;;;-1.73;100.00
61757;BME280;57225;61.460;24.060;2023-11-18T09:18:06;100793.72;;;-1.63;100.00
61757;BME280;57225;61.460;24.060;2023-11-18T09:20:54;100797.91;;;-1.66;100.00
61757;BME280;57225;61.460;24.060;2023-11-18T09:23:38;100792.53;;;-1.71;100.00
61757;BME280;57225;61.460;24.060;2023-11-18T09:26:24;100797.78;;;-1.60;100.00
61757;BME280;57225;61.460;24.060;2023-11-18T09:29:10;100797.91;;;-1.66;100.00
61757;BME280;57225;61.460;24.060;2023-11-18T09:31:55;100796.97;;;-1.61;100.00
61757;BME280;57225;61.460;24.060;2023-11-18T09:34:40;100799.00;;;-1.53;100.00
61757;BME280;57225;61.460;24.060;2023-11-18T09:37:24;100806.09;;;-1.52;100.00
61757;BME280;57225;61.460;24.060;2023-11-18T09:40:16;100796.75;;;-1.51;100.00
61757;BME280;57225;61.460;24.060;2023-11-18T09:43:02;100800.28;;;-1.50;100.00
61757;BME280;57225;61.460;24.060;2023-11-18T09:45:56;100787.88;;;-1.70;100.00
61757;BME280;57225;61.460;24.060;2023-11-18T09:48:46;100800.22;;;-1.59;100.00
61757;BME280;57225;61.460;24.060;2023-11-18T09:51:58;100797.56;;;-1.50;100.00
61757;BME280;57225;61.460;24.060;2023-11-18T09:55:02;100794.41;;;-1.44;100.00
61757;BME280;57225;61.460;24.060;2023-11-18T09:57:51;100792.31;;;-1.47;100.00
61757;BME280;57225;61.460;24.060;2023-11-18T10:00:41;100790.47;;;-1.51;100.00
61757;BME280;57225;61.460;24.060;2023-11-18T10:03:26;100789.47;;;-1.42;100.00
61757;BME280;57225;61.460;24.060;2023-11-18T10:06:12;100785.63;;;-1.41;100.00
61757;BME280;57225;61.460;24.060;2023-11-18T10:08:58;100788.81;;;-1.25;100.00
61757;BME280;57225;61.460;24.060;2023-11-18T10:11:59;100785.25;;;-1.26;100.00
61757;BME280;57225;61.460;24.060;2023-11-18T10:14:49;100776.47;;;-1.23;100.00
61757;BME280;57225;61.460;24.060;2023-11-18T10:17:44;100778.47;;;-1.14;100.00
61757;BME280;57225;61.460;24.060;2023-11-18T10:20:50;100780.19;;;-1.18;100.00
61757;BME280;57225;61.460;24.060;2023-11-18T10:24:03;100777.44;;;-1.18;100.00
61757;BME280;57225;61.460;24.060;2023-11-18T10:26:55;100784.53;;;-1.17;100.00
61757;BME280;57225;61.460;24.060;2023-11-18T10:29:43;100779.06;;;-1.17;100.00
61757;BME280;57225;61.460;24.060;2023-11-18T10:32:28;100778.25;;;-1.18;100.00
61757;BME280;57225;61.460;24.060;2023-11-18T10:35:13;100782.00;;;-1.14;100.00
61757;BME280;57225;61.460;24.060;2023-11-18T10:37:57;100789.47;;;-1.06;100.00
61757;BME280;57225;61.460;24.060;2023-11-18T10:40:46;100751.34;;;-1.25;100.00
61757;BME280;57225;61.460;24.060;2023-11-18T10:43:31;100773.00;;;-1.14;100.00
61757;BME280;57225;61.460;24.060;2023-11-18T10:46:19;100776.16;;;-1.21;100.00
61757;BME280;57225;61.460;24.060;2023-11-18T10:49:05;100770.25;;;-1.14;100.00
61757;BME280;57225;61.460;24.060;2023-11-18T10:51:55;100768.50;;;-1.10;100.00
61757;BME280;57225;61.460;24.060;2023-11-18T10:54:50;100768.13;;;-1.17;100.00
61757;BME280;57225;61.460;24.060;2023-11-18T10:57:38;100765.47;;;-1.09;100.00
61757;BME280;57225;61.460;24.060;2023-11-18T11:00:23;100768.00;;;-1.12;100.00
61757;BME280;57225;61.460;24.060;2023-11-18T11:03:10;100771.19;;;-0.97;100.00
61757;BME280;57225;61.460;24.060;2023-11-18T11:05:57;100762.78;;;-1.00;100.00
61757;BME280;57225;61.460;24.060;2023-11-18T11:08:44;100762.69;;;-0.95;100.00
61757;BME280;57225;61.460;24.060;2023-11-18T11:11:34;100773.38;;;-0.85;100.00
61757;BME280;57225;61.460;24.060;2023-11-18T11:14:23;100766.78;;;-0.84;100.00
61757;BME280;57225;61.460;24.060;2023-11-18T11:17:20;100765.34;;;-0.82;100.00
61757;BME280;57225;61.460;24.060;2023-11-18T11:20:14;100763.66;;;-0.69;100.00
61757;BME280;57225;61.460;24.060;2023-11-18T11:29:36;100773.56;;;-0.82;100.00
61757;BME280;57225;61.460;24.060;2023-11-18T11:32:34;100768.66;;;-0.93;100.00
61757;BME280;57225;61.460;24.060;2023-11-18T11:35:31;100770.25;;;-0.92;100.00
61757;BME280;57225;61.460;24.060;2023-11-18T11:38:17;100770.56;;;-0.94;100.00
61757;BME280;57225;61.460;24.060;2023-11-18T11:41:04;100760.19;;;-1.05;100.00
61757;BME280;57225;61.460;24.060;2023-11-18T11:43:52;100768.00;;;-1.12;100.00
61757;BME280;57225;61.460;24.060;2023-11-18T11:46:43;100768.75;;;-1.20;100.00
61757;BME280;57225;61.460;24.060;2023-11-18T11:49:38;100769.78;;;-1.30;100.00
61757;BME280;57225;61.460;24.060;2023-11-18T11:52:32;100776.06;;;-1.30;100.00
61757;BME280;57225;61.460;24.060;2023-11-18T11:58:34;100776.16;;;-1.21;100.00
61757;BME280;57225;61.460;24.060;2023-11-18T12:01:36;100772.44;;;-1.39;100.00
61757;BME280;57225;61.460;24.060;2023-11-18T12:04:23;100780.63;;;-1.39;100.00
61757;BME280;57225;61.460;24.060;2023-11-18T12:07:12;100775.91;;;-1.47;100.00
61757;BME280;57225;61.460;24.060;2023-11-18T12:10:00;100768.19;;;-1.45;100.00
61757;BME280;57225;61.460;24.060;2023-11-18T12:12:44;100765.28;;;-1.48;100.00
61757;BME280;57225;61.460;24.060;2023-11-18T12:18:40;100759.72;;;-1.57;100.00
61757;BME280;57225;61.460;24.060;2023-11-18T12:21:53;100764.19;;;-1.61;100.00
61757;BME280;57225;61.460;24.060;2023-11-18T12:24:39;100767.09;;;-1.57;100.00
61757;BME280;57225;61.460;24.060;2023-11-18T12:33:13;100760.31;;;-1.46;100.00
61757;BME280;57225;61.460;24.060;2023-11-18T12:36:07;100757.69;;;-1.51;100.00
61757;BME280;57225;61.460;24.060;2023-11-18T12:44:59;100765.66;;;-1.41;100.00
61757;BME280;57225;61.460;24.060;2023-11-18T12:47:54;100762.72;;;-1.45;100.00
61757;BME280;57225;61.460;24.060;2023-11-18T12:50:41;100752.22;;;-1.51;100.00
61757;BME280;57225;61.460;24.060;2023-11-18T12:53:26;100743.97;;;-1.74;100.00
61757;BME280;57225;61.460;24.060;2023-11-18T12:56:11;100765.19;;;-1.57;100.00
61757;BME280;57225;61.460;24.060;2023-11-18T12:58:57;100746.88;;;-1.56;100.00
61757;BME280;57225;61.460;24.060;2023-11-18T13:01:42;100746.06;;;-1.71;100.00
61757;BME280;57225;61.460;24.060;2023-11-18T13:04:27;100751.84;;;-1.72;100.00
61757;BME280;57225;61.460;24.060;2023-11-18T13:07:11;100749.72;;;-1.75;100.00
61757;BME280;57225;61.460;24.060;2023-11-18T13:09:57;100750.13;;;-1.82;100.00
61757;BME280;57225;61.460;24.060;2023-11-18T13:12:44;100753.38;;;-1.93;100.00
61757;BME280;57225;61.460;24.060;2023-11-18T13:15:29;100750.25;;;-2.00;100.00
61757;BME280;57225;61.460;24.060;2023-11-18T13:18:14;100741.16;;;-2.10;100.00
61757;BME280;57225;61.460;24.060;2023-11-18T13:20:58;100742.97;;;-2.19;100.00
61757;BME280;57225;61.460;24.060;2023-11-18T13:23:52;100744.19;;;-2.25;100.00
61757;BME280;57225;61.460;24.060;2023-11-18T13:26:39;100749.22;;;-2.32;100.00
61757;BME280;57225;61.460;24.060;2023-11-18T13:29:24;100749.63;;;-2.38;100.00
61757;BME280;57225;61.460;24.060;2023-11-18T13:32:12;100750.22;;;-2.41;100.00
61757;BME280;57225;61.460;24.060;2023-11-18T13:34:56;100740.00;;;-2.50;100.00
61757;BME280;57225;61.460;24.060;2023-11-18T13:37:41;100736.03;;;-2.57;100.00
61757;BME280;57225;61.460;24.060;2023-11-18T13:40:26;100732.81;;;-2.59;100.00
61757;BME280;57225;61.460;24.060;2023-11-18T13:43:10;100740.06;;;-2.68;100.00
61757;BME280;57225;61.460;24.060;2023-11-18T13:45:55;100745.22;;;-2.67;100.00
61757;BME280;57225;61.460;24.060;2023-11-18T13:48:47;100731.69;;;-2.58;100.00
61757;BME280;57225;61.460;24.060;2023-11-18T13:51:33;100735.19;;;-2.71;100.00
61757;BME280;57225;61.460;24.060;2023-11-18T13:54:20;100703.84;;;-2.88;100.00
61757;BME280;57225;61.460;24.060;2023-11-18T13:57:04;100733.38;;;-2.76;100.00
61757;BME280;57225;61.460;24.060;2023-11-18T13:59:50;100731.16;;;-2.74;100.00
61757;BME280;57225;61.460;24.060;2023-11-18T14:02:35;100736.00;;;-2.71;100.00
61757;BME280;57225;61.460;24.060;2023-11-18T14:05:21;100734.19;;;-2.75;100.00
61757;BME280;57225;61.460;24.060;2023-11-18T14:08:05;100729.50;;;-2.89;100.00
61757;BME280;57225;61.460;24.060;2023-11-18T14:10:52;100726.66;;;-2.97;100.00
61757;BME280;57225;61.460;24.060;2023-11-18T14:13:37;100727.44;;;-2.97;100.00
61757;BME280;57225;61.460;24.060;2023-11-18T14:16:22;100734.63;;;-3.01;100.00
61757;BME280;57225;61.460;24.060;2023-11-18T14:19:07;100728.25;;;-3.10;100.00
61757;BME280;57225;61.460;24.060;2023-11-18T14:21:52;100729.72;;;-3.17;100.00
61757;BME280;57225;61.460;24.060;2023-11-18T14:24:36;100733.63;;;-3.23;100.00
61757;BME280;57225;61.460;24.060;2023-11-18T14:27:21;100732.06;;;-3.11;100.00
61757;BME280;57225;61.460;24.060;2023-11-18T14:30:05;100732.56;;;-3.09;100.00
61757;BME280;57225;61.460;24.060;2023-11-18T14:32:53;100726.38;;;-3.14;100.00
61757;BME280;57225;61.460;24.060;2023-11-18T14:35:38;100721.16;;;-3.11;100.00